sensor_id;sensor_type;location;lat;lon;timestamp;temperature;humidity
74488;DHT22;63019;51.080;13.642;2022-09-09T00:02:32;16.60;64.60
74488;DHT22;63019;51.080;13.642;2022-09-09T00:04:58;16.60;63.60
74488;DHT22;63019;51.080;13.642;2022-09-09T00:06:21;16.60;63.40
74488;DHT22;63019;51.080;13.642;2022-09-09T00:07:36;16.60;64.60
74488;DHT22;63019;51.080;13.642;2022-09-09T00:09:21;16.50;63.40
74488;DHT22;63019;51.080;13.642;2022-09-09T00:11:39;16.50;63.90
74488;DHT22;63019;51.080;13.642;2022-09-09T00:14:03;16.40;64.30
74488;DHT22;63019;51.080;13.642;2022-09-09T00:15:17;16.40;63.40
74488;DHT22;63019;51.080;13.642;2022-09-09T00:16:24;16.40;63.90
74488;DHT22;63019;51.080;13.642;2022-09-09T00:19:07;16.40;64.50
74488;DHT22;63019;51.080;13.642;2022-09-09T00:20:34;16.40;64.80
74488;DHT22;63019;51.080;13.642;2022-09-09T00:21:47;16.40;65.00
74488;DHT22;63019;51.080;13.642;2022-09-09T00:24:25;16.30;64.60
74488;DHT22;63019;51.080;13.642;2022-09-09T00:25:42;16.30;65.00
74488;DHT22;63019;51.080;13.642;2022-09-09T00:26:51;16.30;64.80
74488;DHT22;63019;51.080;13.642;2022-09-09T00:27:54;16.30;64.90
74488;DHT22;63019;51.080;13.642;2022-09-09T00:30:19;16.30;64.90
74488;DHT22;63019;51.080;13.642;2022-09-09T00:31:27;16.30;64.80
74488;DHT22;63019;51.080;13.642;2022-09-09T00:32:30;16.30;64.70
74488;DHT22;63019;51.080;13.642;2022-09-09T00:33:34;16.30;63.90
74488;DHT22;63019;51.080;13.642;2022-09-09T00:34:36;16.30;64.30
74488;DHT22;63019;51.080;13.642;2022-09-09T00:36:13;16.30;64.10
74488;DHT22;63019;51.080;13.642;2022-09-09T00:37:19;16.20;64.60
74488;DHT22;63019;51.080;13.642;2022-09-09T00:38:28;16.30;64.70
74488;DHT22;63019;51.080;13.642;2022-09-09T00:39:42;16.20;64.80
74488;DHT22;63019;51.080;13.642;2022-09-09T00:41:09;16.20;64.90
74488;DHT22;63019;51.080;13.642;2022-09-09T00:44:36;16.20;64.80
74488;DHT22;63019;51.080;13.642;2022-09-09T00:46:10;16.20;64.90
74488;DHT22;63019;51.080;13.642;2022-09-09T00:52:52;16.20;64.90
74488;DHT22;63019;51.080;13.642;2022-09-09T00:55:45;16.20;64.80
74488;DHT22;63019;51.080;13.642;2022-09-09T00:56:53;16.10;64.60
74488;DHT22;63019;51.080;13.642;2022-09-09T00:57:57;16.20;64.90
74488;DHT22;63019;51.080;13.642;2022-09-09T00:59:24;16.20;64.20
74488;DHT22;63019;51.080;13.642;2022-09-09T01:00:39;16.20;64.70
74488;DHT22;63019;51.080;13.642;2022-09-09T01:01:43;16.20;64.70
74488;DHT22;63019;51.080;13.642;2022-09-09T01:02:56;16.10;65.40
74488;DHT22;63019;51.080;13.642;2022-09-09T01:04:00;16.10;65.40
74488;DHT22;63019;51.080;13.642;2022-09-09T01:05:10;16.10;65.00
74488;DHT22;63019;51.080;13.642;2022-09-09T01:07:26;16.00;65.40
74488;DHT22;63019;51.080;13.642;2022-09-09T01:09:04;16.00;64.60
74488;DHT22;63019;51.080;13.642;2022-09-09T01:09:57;16.00;65.40
74488;DHT22;63019;51.080;13.642;2022-09-09T01:11:00;16.00;64.80
74488;DHT22;63019;51.080;13.642;2022-09-09T01:13:20;16.00;66.00
74488;DHT22;63019;51.080;13.642;2022-09-09T01:15:41;15.90;65.90
74488;DHT22;63019;51.080;13.642;2022-09-09T01:16:45;15.90;64.40
74488;DHT22;63019;51.080;13.642;2022-09-09T01:19:19;15.90;65.50
74488;DHT22;63019;51.080;13.642;2022-09-09T01:20:31;15.90;64.60
74488;DHT22;63019;51.080;13.642;2022-09-09T01:22:00;15.90;64.90
74488;DHT22;63019;51.080;13.642;2022-09-09T01:23:27;15.90;65.60
74488;DHT22;63019;51.080;13.642;2022-09-09T01:24:42;16.00;65.70
74488;DHT22;63019;51.080;13.642;2022-09-09T01:27:13;16.00;65.20
74488;DHT22;63019;51.080;13.642;2022-09-09T01:28:22;16.00;64.60
74488;DHT22;63019;51.080;13.642;2022-09-09T01:29:26;16.00;64.50
74488;DHT22;63019;51.080;13.642;2022-09-09T01:30:28;16.00;64.50
74488;DHT22;63019;51.080;13.642;2022-09-09T01:31:34;16.00;64.10
74488;DHT22;63019;51.080;13.642;2022-09-09T01:32:43;16.10;64.60
74488;DHT22;63019;51.080;13.642;2022-09-09T01:33:46;16.00;64.30
74488;DHT22;63019;51.080;13.642;2022-09-09T01:34:48;16.10;64.20
74488;DHT22;63019;51.080;13.642;2022-09-09T01:36:04;16.00;64.10
74488;DHT22;63019;51.080;13.642;2022-09-09T01:37:10;16.00;64.20
74488;DHT22;63019;51.080;13.642;2022-09-09T01:38:14;16.10;64.30
74488;DHT22;63019;51.080;13.642;2022-09-09T01:39:16;16.00;63.50
74488;DHT22;63019;51.080;13.642;2022-09-09T01:40:18;16.00;63.90
74488;DHT22;63019;51.080;13.642;2022-09-09T01:41:21;16.00;63.30
74488;DHT22;63019;51.080;13.642;2022-09-09T01:42:22;16.00;63.60
74488;DHT22;63019;51.080;13.642;2022-09-09T01:43:25;16.00;63.70
74488;DHT22;63019;51.080;13.642;2022-09-09T01:44:28;16.00;64.30
74488;DHT22;63019;51.080;13.642;2022-09-09T01:45:31;16.00;64.40
74488;DHT22;63019;51.080;13.642;2022-09-09T01:46:33;15.90;64.50
74488;DHT22;63019;51.080;13.642;2022-09-09T01:47:35;15.90;64.50
74488;DHT22;63019;51.080;13.642;2022-09-09T01:48:37;15.80;64.90
74488;DHT22;63019;51.080;13.642;2022-09-09T01:49:39;15.80;64.90
74488;DHT22;63019;51.080;13.642;2022-09-09T01:50:41;15.80;65.40
74488;DHT22;63019;51.080;13.642;2022-09-09T01:51:43;15.70;65.80
74488;DHT22;63019;51.080;13.642;2022-09-09T01:52:51;15.70;66.00
74488;DHT22;63019;51.080;13.642;2022-09-09T01:53:54;15.60;66.30
74488;DHT22;63019;51.080;13.642;2022-09-09T01:54:56;15.60;66.60
74488;DHT22;63019;51.080;13.642;2022-09-09T02:01:24;15.50;68.10
74488;DHT22;63019;51.080;13.642;2022-09-09T02:02:30;15.50;66.90
74488;DHT22;63019;51.080;13.642;2022-09-09T02:03:35;15.50;66.20
74488;DHT22;63019;51.080;13.642;2022-09-09T02:05:49;15.50;66.20
74488;DHT22;63019;51.080;13.642;2022-09-09T02:06:54;15.50;65.80
74488;DHT22;63019;51.080;13.642;2022-09-09T02:08:19;15.50;66.00
74488;DHT22;63019;51.080;13.642;2022-09-09T02:09:26;15.50;65.90
74488;DHT22;63019;51.080;13.642;2022-09-09T02:10:37;15.50;66.00
74488;DHT22;63019;51.080;13.642;2022-09-09T02:11:44;15.50;67.10
74488;DHT22;63019;51.080;13.642;2022-09-09T02:13:12;15.50;66.80
74488;DHT22;63019;51.080;13.642;2022-09-09T02:14:21;15.50;66.00
74488;DHT22;63019;51.080;13.642;2022-09-09T02:17:55;15.50;66.10
74488;DHT22;63019;51.080;13.642;2022-09-09T02:20:11;15.50;66.40
74488;DHT22;63019;51.080;13.642;2022-09-09T02:21:14;15.50;66.50
74488;DHT22;63019;51.080;13.642;2022-09-09T02:22:22;15.50;66.40
74488;DHT22;63019;51.080;13.642;2022-09-09T02:23:26;15.50;66.60
74488;DHT22;63019;51.080;13.642;2022-09-09T02:24:34;15.40;66.40
74488;DHT22;63019;51.080;13.642;2022-09-09T02:25:37;15.40;66.40
74488;DHT22;63019;51.080;13.642;2022-09-09T02:26:41;15.40;66.10
74488;DHT22;63019;51.080;13.642;2022-09-09T02:27:45;15.40;66.70
74488;DHT22;63019;51.080;13.642;2022-09-09T02:28:50;15.40;66.70
74488;DHT22;63019;51.080;13.642;2022-09-09T02:29:53;15.40;66.70
74488;DHT22;63019;51.080;13.642;2022-09-09T02:30:57;15.40;66.60
74488;DHT22;63019;51.080;13.642;2022-09-09T02:32:03;15.40;66.40
74488;DHT22;63019;51.080;13.642;2022-09-09T02:33:07;15.40;66.70
74488;DHT22;63019;51.080;13.642;2022-09-09T02:34:13;15.40;66.60
74488;DHT22;63019;51.080;13.642;2022-09-09T02:35:19;15.40;66.60
74488;DHT22;63019;51.080;13.642;2022-09-09T02:36:24;15.40;66.40
74488;DHT22;63019;51.080;13.642;2022-09-09T02:37:32;15.30;66.00
74488;DHT22;63019;51.080;13.642;2022-09-09T02:38:40;15.30;66.30
74488;DHT22;63019;51.080;13.642;2022-09-09T02:39:44;15.30;66.00
74488;DHT22;63019;51.080;13.642;2022-09-09T02:40:46;15.30;66.50
74488;DHT22;63019;51.080;13.642;2022-09-09T02:41:47;15.30;66.50
74488;DHT22;63019;51.080;13.642;2022-09-09T02:42:49;15.30;66.50
74488;DHT22;63019;51.080;13.642;2022-09-09T02:43:51;15.20;67.30
74488;DHT22;63019;51.080;13.642;2022-09-09T02:44:53;15.20;67.40
74488;DHT22;63019;51.080;13.642;2022-09-09T02:46:02;15.20;67.40
74488;DHT22;63019;51.080;13.642;2022-09-09T02:47:33;15.10;67.00
74488;DHT22;63019;51.080;13.642;2022-09-09T02:48:46;15.10;68.20
74488;DHT22;63019;51.080;13.642;2022-09-09T02:51:15;15.10;68.60
74488;DHT22;63019;51.080;13.642;2022-09-09T02:52:25;15.00;68.50
74488;DHT22;63019;51.080;13.642;2022-09-09T02:55:10;15.00;69.40
74488;DHT22;63019;51.080;13.642;2022-09-09T02:56:16;15.00;69.60
74488;DHT22;63019;51.080;13.642;2022-09-09T02:57:25;14.90;69.40
74488;DHT22;63019;51.080;13.642;2022-09-09T02:58:27;14.90;69.70
74488;DHT22;63019;51.080;13.642;2022-09-09T02:59:30;14.90;69.90
74488;DHT22;63019;51.080;13.642;2022-09-09T03:00:32;14.90;70.00
74488;DHT22;63019;51.080;13.642;2022-09-09T03:01:34;14.80;69.70
74488;DHT22;63019;51.080;13.642;2022-09-09T03:02:37;14.80;69.70
74488;DHT22;63019;51.080;13.642;2022-09-09T03:03:40;14.80;69.60
74488;DHT22;63019;51.080;13.642;2022-09-09T03:04:42;14.80;69.80
74488;DHT22;63019;51.080;13.642;2022-09-09T03:05:46;14.70;70.50
74488;DHT22;63019;51.080;13.642;2022-09-09T03:06:47;14.70;70.20
74488;DHT22;63019;51.080;13.642;2022-09-09T03:07:49;14.70;69.70
74488;DHT22;63019;51.080;13.642;2022-09-09T03:08:52;14.80;69.60
74488;DHT22;63019;51.080;13.642;2022-09-09T03:09:54;14.80;69.70
74488;DHT22;63019;51.080;13.642;2022-09-09T03:10:58;14.80;69.20
74488;DHT22;63019;51.080;13.642;2022-09-09T03:12:00;14.80;68.80
74488;DHT22;63019;51.080;13.642;2022-09-09T03:13:02;14.80;68.60
74488;DHT22;63019;51.080;13.642;2022-09-09T03:14:05;14.90;68.20
74488;DHT22;63019;51.080;13.642;2022-09-09T03:15:07;14.90;67.90
74488;DHT22;63019;51.080;13.642;2022-09-09T03:16:09;15.00;67.50
74488;DHT22;63019;51.080;13.642;2022-09-09T03:17:11;15.10;67.40
74488;DHT22;63019;51.080;13.642;2022-09-09T03:18:13;15.20;66.90
74488;DHT22;63019;51.080;13.642;2022-09-09T03:19:15;15.20;66.80
74488;DHT22;63019;51.080;13.642;2022-09-09T03:20:16;15.20;66.50
74488;DHT22;63019;51.080;13.642;2022-09-09T03:21:18;15.30;66.30
74488;DHT22;63019;51.080;13.642;2022-09-09T03:22:20;15.30;66.20
74488;DHT22;63019;51.080;13.642;2022-09-09T03:23:22;15.40;66.30
74488;DHT22;63019;51.080;13.642;2022-09-09T03:24:25;15.40;66.20
74488;DHT22;63019;51.080;13.642;2022-09-09T03:25:26;15.50;66.00
74488;DHT22;63019;51.080;13.642;2022-09-09T03:26:28;15.50;65.80
74488;DHT22;63019;51.080;13.642;2022-09-09T03:27:30;15.50;66.00
74488;DHT22;63019;51.080;13.642;2022-09-09T03:28:32;15.50;65.80
74488;DHT22;63019;51.080;13.642;2022-09-09T03:29:34;15.60;66.00
74488;DHT22;63019;51.080;13.642;2022-09-09T03:30:36;15.50;65.70
74488;DHT22;63019;51.080;13.642;2022-09-09T03:31:39;15.60;65.70
74488;DHT22;63019;51.080;13.642;2022-09-09T03:32:41;15.60;65.30
74488;DHT22;63019;51.080;13.642;2022-09-09T03:33:49;15.60;65.40
74488;DHT22;63019;51.080;13.642;2022-09-09T03:34:51;15.60;65.40
74488;DHT22;63019;51.080;13.642;2022-09-09T03:35:53;15.60;65.30
74488;DHT22;63019;51.080;13.642;2022-09-09T03:36:57;15.60;65.00
74488;DHT22;63019;51.080;13.642;2022-09-09T03:37:59;15.50;65.40
74488;DHT22;63019;51.080;13.642;2022-09-09T03:39:02;15.50;64.80
74488;DHT22;63019;51.080;13.642;2022-09-09T03:40:04;15.50;65.10
74488;DHT22;63019;51.080;13.642;2022-09-09T03:41:07;15.50;66.10
74488;DHT22;63019;51.080;13.642;2022-09-09T03:42:12;15.40;65.90
74488;DHT22;63019;51.080;13.642;2022-09-09T03:43:15;15.40;67.20
74488;DHT22;63019;51.080;13.642;2022-09-09T03:44:18;15.30;67.70
74488;DHT22;63019;51.080;13.642;2022-09-09T03:45:19;15.20;67.60
74488;DHT22;63019;51.080;13.642;2022-09-09T03:46:23;15.10;68.40
74488;DHT22;63019;51.080;13.642;2022-09-09T03:47:25;15.00;68.20
74488;DHT22;63019;51.080;13.642;2022-09-09T03:48:27;14.90;69.10
74488;DHT22;63019;51.080;13.642;2022-09-09T03:49:29;14.90;69.40
74488;DHT22;63019;51.080;13.642;2022-09-09T03:50:31;14.80;70.20
74488;DHT22;63019;51.080;13.642;2022-09-09T03:51:33;14.80;69.80
74488;DHT22;63019;51.080;13.642;2022-09-09T03:52:38;14.70;70.10
74488;DHT22;63019;51.080;13.642;2022-09-09T03:53:40;14.70;69.70
74488;DHT22;63019;51.080;13.642;2022-09-09T03:54:42;14.60;69.80
74488;DHT22;63019;51.080;13.642;2022-09-09T03:55:51;14.60;70.30
74488;DHT22;63019;51.080;13.642;2022-09-09T03:56:56;14.60;70.20
74488;DHT22;63019;51.080;13.642;2022-09-09T03:57:59;14.50;70.30
74488;DHT22;63019;51.080;13.642;2022-09-09T03:59:02;14.50;71.00
74488;DHT22;63019;51.080;13.642;2022-09-09T04:00:05;14.50;71.60
74488;DHT22;63019;51.080;13.642;2022-09-09T04:01:13;14.40;71.70
74488;DHT22;63019;51.080;13.642;2022-09-09T04:02:15;14.40;71.80
74488;DHT22;63019;51.080;13.642;2022-09-09T04:03:17;14.30;72.40
74488;DHT22;63019;51.080;13.642;2022-09-09T04:04:19;14.30;72.50
74488;DHT22;63019;51.080;13.642;2022-09-09T04:05:21;14.30;72.50
74488;DHT22;63019;51.080;13.642;2022-09-09T04:06:23;14.30;72.90
74488;DHT22;63019;51.080;13.642;2022-09-09T04:07:25;14.20;72.90
74488;DHT22;63019;51.080;13.642;2022-09-09T04:08:29;14.20;73.40
74488;DHT22;63019;51.080;13.642;2022-09-09T04:09:33;14.20;73.70
74488;DHT22;63019;51.080;13.642;2022-09-09T04:10:36;14.10;73.80
74488;DHT22;63019;51.080;13.642;2022-09-09T04:11:38;14.20;73.70
74488;DHT22;63019;51.080;13.642;2022-09-09T04:12:40;14.20;73.60
74488;DHT22;63019;51.080;13.642;2022-09-09T04:13:41;14.10;73.50
74488;DHT22;63019;51.080;13.642;2022-09-09T04:14:43;14.10;73.50
74488;DHT22;63019;51.080;13.642;2022-09-09T04:15:57;14.10;73.40
74488;DHT22;63019;51.080;13.642;2022-09-09T04:16:58;14.10;73.60
74488;DHT22;63019;51.080;13.642;2022-09-09T04:18:01;14.10;73.80
74488;DHT22;63019;51.080;13.642;2022-09-09T04:19:03;14.10;73.40
74488;DHT22;63019;51.080;13.642;2022-09-09T04:20:05;14.10;73.50
74488;DHT22;63019;51.080;13.642;2022-09-09T04:21:10;14.10;73.90
74488;DHT22;63019;51.080;13.642;2022-09-09T04:22:13;14.10;74.10
74488;DHT22;63019;51.080;13.642;2022-09-09T04:23:15;14.10;74.10
74488;DHT22;63019;51.080;13.642;2022-09-09T04:24:17;14.00;74.00
74488;DHT22;63019;51.080;13.642;2022-09-09T04:25:20;14.10;74.20
74488;DHT22;63019;51.080;13.642;2022-09-09T04:26:22;14.00;73.90
74488;DHT22;63019;51.080;13.642;2022-09-09T04:27:24;14.10;73.90
74488;DHT22;63019;51.080;13.642;2022-09-09T04:28:28;14.00;73.80
74488;DHT22;63019;51.080;13.642;2022-09-09T04:29:30;14.00;73.90
74488;DHT22;63019;51.080;13.642;2022-09-09T04:30:32;14.10;74.30
74488;DHT22;63019;51.080;13.642;2022-09-09T04:31:35;14.00;73.70
74488;DHT22;63019;51.080;13.642;2022-09-09T04:32:36;14.00;73.90
74488;DHT22;63019;51.080;13.642;2022-09-09T04:33:38;14.10;74.00
74488;DHT22;63019;51.080;13.642;2022-09-09T04:34:41;14.00;73.90
74488;DHT22;63019;51.080;13.642;2022-09-09T04:35:47;14.00;74.50
74488;DHT22;63019;51.080;13.642;2022-09-09T04:36:49;14.00;74.30
74488;DHT22;63019;51.080;13.642;2022-09-09T04:37:53;14.00;73.90
74488;DHT22;63019;51.080;13.642;2022-09-09T04:38:55;14.00;74.30
74488;DHT22;63019;51.080;13.642;2022-09-09T04:39:56;14.00;74.40
74488;DHT22;63019;51.080;13.642;2022-09-09T04:40:58;14.00;74.40
74488;DHT22;63019;51.080;13.642;2022-09-09T04:42:00;14.00;74.60
74488;DHT22;63019;51.080;13.642;2022-09-09T04:43:02;14.00;74.80
74488;DHT22;63019;51.080;13.642;2022-09-09T04:44:10;14.00;74.80
74488;DHT22;63019;51.080;13.642;2022-09-09T04:45:11;14.10;74.80
74488;DHT22;63019;51.080;13.642;2022-09-09T04:46:15;14.10;75.10
74488;DHT22;63019;51.080;13.642;2022-09-09T04:47:18;14.00;75.00
74488;DHT22;63019;51.080;13.642;2022-09-09T04:48:20;14.10;74.90
74488;DHT22;63019;51.080;13.642;2022-09-09T04:49:22;14.10;74.60
74488;DHT22;63019;51.080;13.642;2022-09-09T04:50:24;14.10;75.60
74488;DHT22;63019;51.080;13.642;2022-09-09T04:51:27;14.10;74.80
74488;DHT22;63019;51.080;13.642;2022-09-09T04:52:29;14.10;74.70
74488;DHT22;63019;51.080;13.642;2022-09-09T04:53:31;14.10;74.50
74488;DHT22;63019;51.080;13.642;2022-09-09T04:54:35;14.10;74.50
74488;DHT22;63019;51.080;13.642;2022-09-09T04:55:37;14.10;74.50
74488;DHT22;63019;51.080;13.642;2022-09-09T04:56:39;14.00;74.50
74488;DHT22;63019;51.080;13.642;2022-09-09T04:57:41;14.00;74.70
74488;DHT22;63019;51.080;13.642;2022-09-09T04:58:43;14.10;75.00
74488;DHT22;63019;51.080;13.642;2022-09-09T04:59:44;14.00;74.80
74488;DHT22;63019;51.080;13.642;2022-09-09T05:00:47;14.10;75.00
74488;DHT22;63019;51.080;13.642;2022-09-09T05:01:49;14.00;75.20
74488;DHT22;63019;51.080;13.642;2022-09-09T05:02:51;14.00;75.30
74488;DHT22;63019;51.080;13.642;2022-09-09T05:03:53;14.00;75.00
74488;DHT22;63019;51.080;13.642;2022-09-09T05:04:55;14.00;75.00
74488;DHT22;63019;51.080;13.642;2022-09-09T05:06:23;14.00;75.20
74488;DHT22;63019;51.080;13.642;2022-09-09T05:07:26;14.10;75.20
74488;DHT22;63019;51.080;13.642;2022-09-09T05:08:28;14.00;75.40
74488;DHT22;63019;51.080;13.642;2022-09-09T05:09:30;14.10;75.50
74488;DHT22;63019;51.080;13.642;2022-09-09T05:10:33;14.10;75.40
74488;DHT22;63019;51.080;13.642;2022-09-09T05:11:35;14.10;75.50
74488;DHT22;63019;51.080;13.642;2022-09-09T05:12:38;14.10;75.40
74488;DHT22;63019;51.080;13.642;2022-09-09T05:13:40;14.10;75.20
74488;DHT22;63019;51.080;13.642;2022-09-09T05:14:43;14.10;75.80
74488;DHT22;63019;51.080;13.642;2022-09-09T05:15:52;14.10;75.20
74488;DHT22;63019;51.080;13.642;2022-09-09T05:16:54;14.20;75.20
74488;DHT22;63019;51.080;13.642;2022-09-09T05:18:01;14.10;75.50
74488;DHT22;63019;51.080;13.642;2022-09-09T05:19:04;14.10;75.40
74488;DHT22;63019;51.080;13.642;2022-09-09T05:20:05;14.20;75.50
74488;DHT22;63019;51.080;13.642;2022-09-09T05:21:13;14.20;75.30
74488;DHT22;63019;51.080;13.642;2022-09-09T05:22:21;14.20;75.70
74488;DHT22;63019;51.080;13.642;2022-09-09T05:23:24;14.20;75.00
74488;DHT22;63019;51.080;13.642;2022-09-09T05:24:26;14.20;75.50
74488;DHT22;63019;51.080;13.642;2022-09-09T05:25:28;14.20;75.70
74488;DHT22;63019;51.080;13.642;2022-09-09T05:26:29;14.20;75.30
74488;DHT22;63019;51.080;13.642;2022-09-09T05:27:33;14.20;75.30
74488;DHT22;63019;51.080;13.642;2022-09-09T05:28:35;14.20;75.60
74488;DHT22;63019;51.080;13.642;2022-09-09T05:29:38;14.20;75.40
74488;DHT22;63019;51.080;13.642;2022-09-09T05:30:39;14.20;75.60
74488;DHT22;63019;51.080;13.642;2022-09-09T05:31:41;14.20;75.70
74488;DHT22;63019;51.080;13.642;2022-09-09T05:32:43;14.20;75.70
74488;DHT22;63019;51.080;13.642;2022-09-09T05:33:46;14.20;76.20
74488;DHT22;63019;51.080;13.642;2022-09-09T05:34:48;14.20;76.10
74488;DHT22;63019;51.080;13.642;2022-09-09T05:36:01;14.30;75.70
74488;DHT22;63019;51.080;13.642;2022-09-09T05:37:04;14.30;75.30
74488;DHT22;63019;51.080;13.642;2022-09-09T05:38:05;14.30;76.10
74488;DHT22;63019;51.080;13.642;2022-09-09T05:39:08;14.30;76.20
74488;DHT22;63019;51.080;13.642;2022-09-09T05:40:09;14.30;76.40
74488;DHT22;63019;51.080;13.642;2022-09-09T05:41:13;14.30;76.10
74488;DHT22;63019;51.080;13.642;2022-09-09T05:42:17;14.30;75.80
74488;DHT22;63019;51.080;13.642;2022-09-09T05:43:21;14.40;75.80
74488;DHT22;63019;51.080;13.642;2022-09-09T05:44:22;14.40;75.70
74488;DHT22;63019;51.080;13.642;2022-09-09T05:45:29;14.40;75.80
74488;DHT22;63019;51.080;13.642;2022-09-09T05:46:31;14.50;75.90
74488;DHT22;63019;51.080;13.642;2022-09-09T05:47:33;14.50;75.80
74488;DHT22;63019;51.080;13.642;2022-09-09T05:48:36;14.50;75.80
74488;DHT22;63019;51.080;13.642;2022-09-09T05:49:38;14.50;75.90
74488;DHT22;63019;51.080;13.642;2022-09-09T05:50:41;14.50;75.70
74488;DHT22;63019;51.080;13.642;2022-09-09T05:51:44;14.60;75.70
74488;DHT22;63019;51.080;13.642;2022-09-09T05:52:45;14.50;75.60
74488;DHT22;63019;51.080;13.642;2022-09-09T05:53:48;14.60;75.40
74488;DHT22;63019;51.080;13.642;2022-09-09T05:54:50;14.60;75.70
74488;DHT22;63019;51.080;13.642;2022-09-09T05:56:19;14.60;76.00
74488;DHT22;63019;51.080;13.642;2022-09-09T05:57:21;14.60;76.00
74488;DHT22;63019;51.080;13.642;2022-09-09T05:58:22;14.60;75.70
74488;DHT22;63019;51.080;13.642;2022-09-09T05:59:25;14.60;75.80
74488;DHT22;63019;51.080;13.642;2022-09-09T06:00:27;14.70;75.60
74488;DHT22;63019;51.080;13.642;2022-09-09T06:01:31;14.70;75.50
74488;DHT22;63019;51.080;13.642;2022-09-09T06:02:33;14.70;75.50
74488;DHT22;63019;51.080;13.642;2022-09-09T06:03:37;14.70;75.40
74488;DHT22;63019;51.080;13.642;2022-09-09T06:04:39;14.70;75.40
74488;DHT22;63019;51.080;13.642;2022-09-09T06:05:41;14.70;75.60
74488;DHT22;63019;51.080;13.642;2022-09-09T06:06:42;14.70;75.80
74488;DHT22;63019;51.080;13.642;2022-09-09T06:07:44;14.70;75.70
74488;DHT22;63019;51.080;13.642;2022-09-09T06:08:46;14.70;75.60
74488;DHT22;63019;51.080;13.642;2022-09-09T06:09:48;14.80;75.80
74488;DHT22;63019;51.080;13.642;2022-09-09T06:10:50;14.70;75.50
74488;DHT22;63019;51.080;13.642;2022-09-09T06:11:51;14.80;76.00
74488;DHT22;63019;51.080;13.642;2022-09-09T06:12:53;14.80;75.60
74488;DHT22;63019;51.080;13.642;2022-09-09T06:13:55;14.80;75.30
74488;DHT22;63019;51.080;13.642;2022-09-09T06:14:56;14.90;75.80
74488;DHT22;63019;51.080;13.642;2022-09-09T06:15:58;14.80;75.40
74488;DHT22;63019;51.080;13.642;2022-09-09T06:17:01;14.90;75.40
74488;DHT22;63019;51.080;13.642;2022-09-09T06:18:03;14.90;75.10
74488;DHT22;63019;51.080;13.642;2022-09-09T06:19:05;14.90;75.20
74488;DHT22;63019;51.080;13.642;2022-09-09T06:20:08;14.90;75.00
74488;DHT22;63019;51.080;13.642;2022-09-09T06:21:22;15.00;75.20
74488;DHT22;63019;51.080;13.642;2022-09-09T06:22:24;15.00;75.60
74488;DHT22;63019;51.080;13.642;2022-09-09T06:23:26;15.00;75.10
74488;DHT22;63019;51.080;13.642;2022-09-09T06:24:28;15.00;75.20
74488;DHT22;63019;51.080;13.642;2022-09-09T06:25:31;15.00;75.40
74488;DHT22;63019;51.080;13.642;2022-09-09T06:26:35;15.10;75.40
74488;DHT22;63019;51.080;13.642;2022-09-09T06:27:37;15.10;75.30
74488;DHT22;63019;51.080;13.642;2022-09-09T06:28:39;15.10;75.00
74488;DHT22;63019;51.080;13.642;2022-09-09T06:29:41;15.20;75.30
74488;DHT22;63019;51.080;13.642;2022-09-09T06:30:43;15.20;75.10
74488;DHT22;63019;51.080;13.642;2022-09-09T06:31:44;15.20;75.10
74488;DHT22;63019;51.080;13.642;2022-09-09T06:32:46;15.20;75.00
74488;DHT22;63019;51.080;13.642;2022-09-09T06:33:49;15.20;74.90
74488;DHT22;63019;51.080;13.642;2022-09-09T06:34:52;15.20;75.00
74488;DHT22;63019;51.080;13.642;2022-09-09T06:35:54;15.30;74.90
74488;DHT22;63019;51.080;13.642;2022-09-09T06:36:58;15.30;74.60
74488;DHT22;63019;51.080;13.642;2022-09-09T06:38:00;15.30;74.50
74488;DHT22;63019;51.080;13.642;2022-09-09T06:39:02;15.30;74.40
74488;DHT22;63019;51.080;13.642;2022-09-09T06:40:04;15.30;74.50
74488;DHT22;63019;51.080;13.642;2022-09-09T06:41:07;15.30;74.70
74488;DHT22;63019;51.080;13.642;2022-09-09T06:42:09;15.30;74.60
74488;DHT22;63019;51.080;13.642;2022-09-09T06:43:11;15.40;74.60
74488;DHT22;63019;51.080;13.642;2022-09-09T06:44:12;15.40;74.40
74488;DHT22;63019;51.080;13.642;2022-09-09T06:45:14;15.50;74.50
74488;DHT22;63019;51.080;13.642;2022-09-09T06:46:24;15.50;74.40
74488;DHT22;63019;51.080;13.642;2022-09-09T06:47:29;15.50;75.00
74488;DHT22;63019;51.080;13.642;2022-09-09T06:48:31;15.50;74.50
74488;DHT22;63019;51.080;13.642;2022-09-09T06:49:34;15.60;74.80
74488;DHT22;63019;51.080;13.642;2022-09-09T06:50:36;15.70;74.80
74488;DHT22;63019;51.080;13.642;2022-09-09T06:51:38;15.70;74.80
74488;DHT22;63019;51.080;13.642;2022-09-09T06:52:46;15.70;74.30
74488;DHT22;63019;51.080;13.642;2022-09-09T06:53:58;15.80;74.00
74488;DHT22;63019;51.080;13.642;2022-09-09T06:55:00;15.80;74.00
74488;DHT22;63019;51.080;13.642;2022-09-09T06:56:24;15.80;73.70
74488;DHT22;63019;51.080;13.642;2022-09-09T06:57:24;15.80;73.40
74488;DHT22;63019;51.080;13.642;2022-09-09T06:58:41;15.80;73.30
74488;DHT22;63019;51.080;13.642;2022-09-09T06:59:45;15.90;73.40
74488;DHT22;63019;51.080;13.642;2022-09-09T07:00:47;15.90;73.00
74488;DHT22;63019;51.080;13.642;2022-09-09T07:01:49;15.90;73.20
74488;DHT22;63019;51.080;13.642;2022-09-09T07:02:56;15.90;73.00
74488;DHT22;63019;51.080;13.642;2022-09-09T07:03:59;16.00;72.70
74488;DHT22;63019;51.080;13.642;2022-09-09T07:05:01;16.00;72.40
74488;DHT22;63019;51.080;13.642;2022-09-09T07:06:03;16.10;72.60
74488;DHT22;63019;51.080;13.642;2022-09-09T07:07:05;16.10;72.00
74488;DHT22;63019;51.080;13.642;2022-09-09T07:08:07;16.20;72.20
74488;DHT22;63019;51.080;13.642;2022-09-09T07:09:12;16.30;73.20
74488;DHT22;63019;51.080;13.642;2022-09-09T07:10:14;16.20;72.70
74488;DHT22;63019;51.080;13.642;2022-09-09T07:11:16;16.30;72.20
74488;DHT22;63019;51.080;13.642;2022-09-09T07:12:17;16.30;72.10
74488;DHT22;63019;51.080;13.642;2022-09-09T07:13:25;16.30;72.10
74488;DHT22;63019;51.080;13.642;2022-09-09T07:14:28;16.30;71.60
74488;DHT22;63019;51.080;13.642;2022-09-09T07:15:30;16.30;72.20
74488;DHT22;63019;51.080;13.642;2022-09-09T07:16:31;16.30;72.30
74488;DHT22;63019;51.080;13.642;2022-09-09T07:17:35;16.40;72.70
74488;DHT22;63019;51.080;13.642;2022-09-09T07:18:37;16.40;72.40
74488;DHT22;63019;51.080;13.642;2022-09-09T07:19:38;16.40;72.90
74488;DHT22;63019;51.080;13.642;2022-09-09T07:20:40;16.50;73.40
74488;DHT22;63019;51.080;13.642;2022-09-09T07:21:43;16.60;73.20
74488;DHT22;63019;51.080;13.642;2022-09-09T07:22:44;16.70;73.20